Ocean Beaut — WDD7485 — position and weather

sailwx.info

Track history (hours):
 
Tides and Currents Weather Stations Pressure Air Temp Water Temp Dewpoint Dewpoint Depression Visibility Wind Speed Wind Dir Waves Ship Positions

Ocean Beaut

Owner: John Moreland Fishing Inc., Astoria, OR. More information available from US FCC via Universal Licensing System.

Last reported at 2016-Jul-31 01:32 UTC. Time now 2016-Jul-31 01:44 UTC.
Position N 46°12' W 123°48'.

Length 20 m.

Type: Fishing. MMSI: 367187080.

Date/timePositionNaut miles runAvg speedWind from/ knotsBaromVisibWave heightAir tempDewpointWater temp
2016-Jul-31 01:32N 46°12' W 123°48'0 0.0
2016-Jul-31 00:32N 46°12' W 123°48'0 0.0
2016-Jul-30 22:32N 46°12' W 123°48'0 0.0
2016-Jul-30 21:32N 46°12' W 123°48'0 0.0
2016-Jul-30 20:32N 46°12' W 123°48'0 0.0
2016-Jul-30 19:32N 46°12' W 123°48'0 0.0
2016-Jul-30 18:32N 46°12' W 123°48'0 0.0
2016-Jul-30 17:32N 46°12' W 123°48'0 0.0
2016-Jul-30 16:32N 46°12' W 123°48'0 0.0
2016-Jul-30 15:32N 46°12' W 123°48'0 0.0
2016-Jul-30 14:32N 46°12' W 123°48'0 0.0
2016-Jul-30 13:32N 46°12' W 123°48'0 0.0
2016-Jul-30 12:32N 46°12' W 123°48'0 0.0
2016-Jul-30 11:29N 46°12' W 123°48'0 0.0
2016-Jul-30 10:32N 46°12' W 123°48'0 0.0
2016-Jul-30 09:29N 46°12' W 123°48'0 0.0
2016-Jul-30 08:32N 46°12' W 123°48'0 0.0
2016-Jul-30 07:29N 46°12' W 123°48'0 0.0
2016-Jul-30 06:32N 46°12' W 123°48'0 0.0
2016-Jul-30 05:32N 46°12' W 123°48'0 0.0
2016-Jul-30 04:32N 46°12' W 123°48'0 0.0
2016-Jul-30 03:32N 46°12' W 123°48'0 0.0
2016-Jul-30 02:32N 46°12' W 123°48'0 0.0
2016-Jul-30 01:32N 46°12' W 123°48'0 0.0
2016-Jul-30 00:32N 46°12' W 123°48'0 0.0
2016-Jul-29 23:32N 46°12' W 123°48'0 0.0
2016-Jul-29 22:32N 46°12' W 123°48'0 0.0
2016-Jul-29 21:32N 46°12' W 123°48'0 0.0
2016-Jul-29 20:32N 46°12' W 123°48'0 0.0
2016-Jul-29 19:32N 46°12' W 123°48'0 0.0
2016-Jul-29 18:33N 46°12' W 123°48'2 2.3
2016-Jul-29 17:32N 46°11' W 123°51'0 0.0
2016-Jul-29 16:32N 46°11' W 123°51'0 0.0
2016-Jul-29 15:32N 46°11' W 123°51'0 0.0
2016-Jul-29 14:32N 46°11' W 123°51'0 0.0
2016-Jul-29 13:32N 46°11' W 123°51'0 0.0
2016-Jul-29 12:32N 46°11' W 123°51'0 0.0
2016-Jul-29 11:32N 46°11' W 123°51'0 0.0
2016-Jul-29 10:32N 46°11' W 123°51'0 0.0
2016-Jul-29 09:32N 46°11' W 123°51'0 0.0
2016-Jul-29 08:32N 46°11' W 123°51'0 0.0
2016-Jul-29 07:32N 46°11' W 123°51'0 0.0
2016-Jul-29 06:32N 46°11' W 123°51'0 0.0
2016-Jul-29 05:32N 46°11' W 123°51'0 0.0
2016-Jul-29 04:32N 46°11' W 123°51'0 0.0
2016-Jul-29 03:32N 46°11' W 123°51'0 0.0
2016-Jul-29 02:32N 46°11' W 123°51'0 0.0
2016-Jul-29 01:32N 46°11' W 123°51'0 0.0
2016-Jul-29 00:32N 46°11' W 123°51'5 5.5
2016-Jul-28 23:33N 46°14' W 123°58'6 6.0
2016-Jul-28 22:33N 46°15' W 124°07'5 5.0
2016-Jul-28 21:33N 46°14' W 124°14'3 3.1
2016-Jul-28 20:33N 46°12' W 124°18'2 1.9
2016-Jul-28 19:34N 46°11' W 124°18'2 2.4
2016-Jul-28 18:33N 46°08' W 124°17'2 2.4
2016-Jul-28 17:33N 46°06' W 124°17'2 1.6
2016-Jul-28 16:33N 46°04' W 124°18'2 2.2
2016-Jul-28 15:33N 46°07' W 124°18'2 2.3
2016-Jul-28 14:33N 46°09' W 124°18'2 2.4
2016-Jul-28 13:33N 46°11' W 124°18'2 2.0
2016-Jul-28 12:33N 46°13' W 124°19'1 0.9
2016-Jul-28 11:33N 46°14' W 124°19'1 1.3
2016-Jul-28 10:33N 46°14' W 124°21'1 1.2
2016-Jul-28 09:33N 46°14' W 124°20'1 1.3
2016-Jul-28 08:33N 46°16' W 124°20'1 1.4
2016-Jul-28 07:33N 46°17' W 124°20'1 1.5
2016-Jul-28 06:33N 46°16' W 124°19'3 3.3
2016-Jul-28 05:33N 46°13' W 124°18'2 2.5
2016-Jul-28 04:33N 46°10' W 124°17'2 2.5
2016-Jul-28 03:33N 46°08' W 124°17'2 2.4
2016-Jul-28 02:33N 46°05' W 124°18'1 1.4
2016-Jul-28 01:33N 46°04' W 124°19'1 1.3
2016-Jul-28 00:34N 46°06' W 124°20'1 1.3
2016-Jul-27 23:33N 46°07' W 124°20'3 2.5
2016-Jul-27 22:33N 46°09' W 124°20'3 2.7
2016-Jul-27 21:33N 46°12' W 124°20'3 3.2
2016-Jul-27 20:33N 46°15' W 124°19'4 4.2
2016-Jul-27 19:33N 46°19' W 124°21'2 2.5
2016-Jul-27 18:33N 46°21' W 124°23'2 2.4
2016-Jul-27 17:33N 46°23' W 124°25'2 2.5
2016-Jul-27 16:33N 46°26' W 124°26'1 0.8
2016-Jul-27 15:34N 46°25' W 124°25'2 2.4
2016-Jul-27 14:33N 46°23' W 124°23'2 2.5
2016-Jul-27 13:33N 46°21' W 124°22'2 2.5
2016-Jul-27 12:33N 46°19' W 124°20'0 0.2
2016-Jul-27 11:33N 46°19' W 124°20'3 2.6
2016-Jul-27 10:33N 46°16' W 124°21'1 1.2
2016-Jul-27 09:33N 46°15' W 124°20'1 1.2
2016-Jul-27 08:33N 46°16' W 124°20'0 0.3
2016-Jul-27 07:33N 46°16' W 124°20'5 4.9
2016-Jul-27 06:34N 46°11' W 124°19'1 1.5
2016-Jul-27 05:33N 46°10' W 124°20'2 2.3
2016-Jul-27 04:33N 46°08' W 124°20'2 2.2
2016-Jul-27 03:33N 46°05' W 124°20'1 1.1
2016-Jul-27 02:33N 46°06' W 124°18'0 0.1
2016-Jul-27 01:33N 46°06' W 124°18'3 2.5
2016-Jul-27 00:33N 46°08' W 124°18'3 2.5
2016-Jul-26 23:33N 46°11' W 124°18'2 2.4
2016-Jul-26 22:34N 46°13' W 124°19'4 4.2
2016-Jul-26 21:33N 46°17' W 124°20'3 2.7
2016-Jul-26 20:34N 46°20' W 124°22'2 2.4
2016-Jul-26 19:33N 46°22' W 124°24'2 2.3
2016-Jul-26 18:33N 46°24' W 124°25'2 2.0
2016-Jul-26 17:33N 46°26' W 124°25'1 1.1
2016-Jul-26 16:32N 46°27' W 124°25'2 2.4
2016-Jul-26 15:33N 46°30' W 124°25'2 2.4
2016-Jul-26 14:33N 46°32' W 124°25'2 2.4
2016-Jul-26 13:32N 46°34' W 124°25'2 2.1
2016-Jul-26 12:33N 46°36' W 124°25'0 0.3
2016-Jul-26 11:33N 46°36' W 124°25'2 2.2
2016-Jul-26 10:33N 46°34' W 124°25'2 2.2
2016-Jul-26 09:33N 46°32' W 124°25'2 2.3
2016-Jul-26 08:33N 46°30' W 124°25'2 2.3
2016-Jul-26 07:33N 46°27' W 124°26'2 2.4
2016-Jul-26 06:33N 46°25' W 124°25'2 2.3
2016-Jul-26 05:33N 46°23' W 124°24'2 2.3
2016-Jul-26 04:33N 46°21' W 124°23'2 2.4
2016-Jul-26 03:33N 46°19' W 124°21'5 5.0
2016-Jul-26 02:34N 46°16' W 124°15'7 7.1
2016-Jul-26 01:33N 46°15' W 124°05'6 6.2
2016-Jul-26 00:33N 46°13' W 123°57'4 3.9
2016-Jul-25 23:33N 46°11' W 123°51'0 0.0
2016-Jul-25 22:33N 46°11' W 123°51'1 0.9
2016-Jul-25 21:33N 46°12' W 123°50'2 1.5
2016-Jul-25 20:33N 46°12' W 123°48'0 0.0
2016-Jul-25 19:33N 46°12' W 123°48'0 0.0
2016-Jul-25 18:33N 46°12' W 123°48'0 0.0
2016-Jul-25 17:33N 46°12' W 123°48'0 0.0
2016-Jul-25 16:33N 46°12' W 123°48'0 0.0
2016-Jul-25 15:33N 46°12' W 123°48'0 0.0
2016-Jul-25 14:33N 46°12' W 123°48'0 0.0
2016-Jul-25 13:33N 46°12' W 123°48'0 0.0
2016-Jul-25 12:33N 46°12' W 123°48'0 0.0
2016-Jul-25 11:33N 46°12' W 123°48'0 0.0
2016-Jul-25 10:33N 46°12' W 123°48'0 0.0
2016-Jul-25 09:33N 46°12' W 123°48'0 0.0
2016-Jul-25 08:30N 46°12' W 123°48'0 0.0
2016-Jul-25 07:33N 46°12' W 123°48'0 0.0
2016-Jul-25 06:33N 46°12' W 123°48'0 0.0
2016-Jul-25 05:33N 46°12' W 123°48'0 0.0
2016-Jul-25 04:33N 46°12' W 123°48'0 0.0
2016-Jul-25 03:33N 46°12' W 123°48'0 0.0
2016-Jul-25 02:33N 46°12' W 123°48'0 0.0
2016-Jul-25 01:33N 46°12' W 123°48'0 0.0
2016-Jul-25 00:33N 46°12' W 123°48'0 0.0
2016-Jul-24 23:33N 46°12' W 123°48'0 0.0
2016-Jul-24 22:33N 46°12' W 123°48'0 0.0
2016-Jul-24 21:33N 46°12' W 123°48'0 0.0
2016-Jul-24 20:33N 46°12' W 123°48'0 0.0
2016-Jul-24 19:33N 46°12' W 123°48'0 0.0
2016-Jul-24 18:33N 46°12' W 123°48'0 0.0
2016-Jul-24 17:30N 46°12' W 123°48'0 0.0
2016-Jul-24 16:30N 46°12' W 123°48'0 0.0
2016-Jul-24 15:33N 46°12' W 123°48'0 0.0
2016-Jul-24 14:33N 46°12' W 123°48'0 0.0
2016-Jul-24 13:33N 46°12' W 123°48'0 0.0
2016-Jul-24 12:33N 46°12' W 123°48'0 0.0
2016-Jul-24 11:33N 46°12' W 123°48'0 0.0
2016-Jul-24 10:33N 46°12' W 123°48'0 0.0
2016-Jul-24 09:33N 46°12' W 123°48'0 0.0
2016-Jul-24 08:33N 46°12' W 123°48'0 0.0
2016-Jul-24 07:33N 46°12' W 123°48'0 0.0
2016-Jul-24 06:33N 46°12' W 123°48'0 0.0
2016-Jul-24 05:33N 46°12' W 123°48'0 0.0
2016-Jul-24 04:33N 46°12' W 123°48'0 0.0
2016-Jul-24 03:33N 46°12' W 123°48'0 0.0
2016-Jul-24 02:33N 46°12' W 123°48'0 0.0
2016-Jul-24 01:33N 46°12' W 123°48'0 0.0
2016-Jul-24 00:33N 46°12' W 123°48'0 0.0
2016-Jul-23 23:33N 46°12' W 123°48'0 0.0
2016-Jul-23 22:33N 46°12' W 123°48'0 0.0
2016-Jul-23 21:33N 46°12' W 123°48'0 0.0
2016-Jul-23 20:33N 46°12' W 123°48'0 0.0
2016-Jul-23 19:33N 46°12' W 123°48'0 0.0
2016-Jul-23 18:33N 46°12' W 123°48'0 0.0
2016-Jul-23 17:33N 46°12' W 123°48'0 0.0
2016-Jul-23 16:33N 46°12' W 123°48'0 0.0
2016-Jul-23 15:33N 46°12' W 123°48'0 0.0
2016-Jul-23 14:33N 46°12' W 123°48'0 0.0
2016-Jul-23 13:33N 46°12' W 123°48'0 0.0
2016-Jul-23 12:33N 46°12' W 123°48'0 0.0
2016-Jul-23 11:33N 46°12' W 123°48'0 0.0
2016-Jul-23 10:33N 46°12' W 123°48'0 0.0
2016-Jul-23 09:33N 46°12' W 123°48'0 0.0
2016-Jul-23 08:33N 46°12' W 123°48'0 0.0
2016-Jul-23 07:33N 46°12' W 123°48'0 0.0
2016-Jul-23 06:33N 46°12' W 123°48'0 0.0
2016-Jul-23 04:33N 46°12' W 123°48'0 0.0
2016-Jul-23 03:33N 46°12' W 123°48'0 0.0
2016-Jul-23 02:33N 46°12' W 123°48'0 0.0
2016-Jul-23 01:33N 46°12' W 123°48'0 0.0
2016-Jul-23 00:33N 46°12' W 123°48'0 0.0
2016-Jul-22 23:33N 46°12' W 123°48'0 0.0
2016-Jul-22 22:33N 46°12' W 123°48'0 0.0
2016-Jul-22 21:33N 46°12' W 123°48'0 0.0
2016-Jul-22 20:33N 46°12' W 123°48'0 0.0
2016-Jul-22 19:33N 46°12' W 123°48'0 0.0
2016-Jul-22 18:33N 46°12' W 123°48'0 0.0
2016-Jul-22 17:33N 46°12' W 123°48'2 2.2
2016-Jul-22 16:33N 46°12' W 123°51'0 0.3
2016-Jul-22 15:31N 46°11' W 123°51'0 0.0
2016-Jul-22 14:31N 46°11' W 123°51'0 0.0
2016-Jul-22 13:31N 46°11' W 123°51'0 0.0
2016-Jul-22 12:31N 46°11' W 123°51'0 0.0
2016-Jul-22 11:31N 46°11' W 123°51'0 0.0
2016-Jul-22 10:31N 46°11' W 123°51'0 0.0
2016-Jul-22 09:28N 46°11' W 123°51'0 0.0
2016-Jul-22 08:31N 46°11' W 123°51'0 0.0
2016-Jul-22 07:31N 46°11' W 123°51'12 6.3
2016-Jul-22 05:33N 46°15' W 124°09'6 6.4
2016-Jul-22 04:33N 46°17' W 124°17'3 3.0
2016-Jul-22 03:33N 46°19' W 124°20'3 2.5
2016-Jul-22 02:33N 46°21' W 124°23'2 2.4
2016-Jul-22 01:33N 46°24' W 124°24'1 0.7
2016-Jul-22 00:33N 46°24' W 124°24'2 2.3
2016-Jul-21 23:33N 46°22' W 124°24'2 2.4
2016-Jul-21 22:33N 46°20' W 124°22'2 2.4
2016-Jul-21 21:33N 46°18' W 124°19'6 6.2
2016-Jul-21 20:33N 46°12' W 124°19'6 5.6
2016-Jul-21 19:33N 46°06' W 124°19'2 2.4
2016-Jul-21 18:33N 46°09' W 124°19'3 2.8
2016-Jul-21 17:33N 46°12' W 124°20'3 3.0
2016-Jul-21 16:33N 46°15' W 124°20'3 3.4
2016-Jul-21 15:33N 46°11' W 124°19'3 2.5
2016-Jul-21 14:33N 46°09' W 124°19'3 2.6
2016-Jul-21 13:33N 46°06' W 124°18'3 2.7
2016-Jul-21 12:34N 46°03' W 124°18'0 0.2
2016-Jul-21 11:31N 46°03' W 124°18'1 0.8
2016-Jul-21 10:31N 46°04' W 124°18'1 1.0
2016-Jul-21 09:33N 46°05' W 124°18'2 2.1
2016-Jul-21 08:33N 46°07' W 124°18'2 2.5
2016-Jul-21 07:33N 46°10' W 124°18'3 2.6
2016-Jul-21 06:33N 46°12' W 124°18'2 2.5
2016-Jul-21 05:33N 46°15' W 124°19'2 1.5
2016-Jul-21 04:33N 46°16' W 124°19'4 3.7
2016-Jul-21 03:33N 46°20' W 124°21'2 1.9
2016-Jul-21 02:33N 46°21' W 124°22'2 2.5
2016-Jul-21 01:33N 46°24' W 124°23'  
Track history (hours):
 
Tides and Currents Weather Stations Pressure Air Temp Water Temp Dewpoint Dewpoint Depression Visibility Wind Speed Wind Dir Waves Ship Positions

Ocean Beaut

Owner: John Moreland Fishing Inc., Astoria, OR. More information available from US FCC via Universal Licensing System.

Last reported at 2016-Jul-31 01:32 UTC. Time now 2016-Jul-31 01:44 UTC.
Position N 46°12' W 123°48'.

Length 20 m.

Type: Fishing. MMSI: 367187080.

Date/timePositionNaut miles runAvg speedWind from/ knotsBaromVisibWave heightAir tempDewpointWater temp
2016-Jul-31 01:32N 46°12' W 123°48'0 0.0
2016-Jul-31 00:32N 46°12' W 123°48'0 0.0
2016-Jul-30 22:32N 46°12' W 123°48'0 0.0
2016-Jul-30 21:32N 46°12' W 123°48'0 0.0
2016-Jul-30 20:32N 46°12' W 123°48'0 0.0
2016-Jul-30 19:32N 46°12' W 123°48'0 0.0
2016-Jul-30 18:32N 46°12' W 123°48'0 0.0
2016-Jul-30 17:32N 46°12' W 123°48'0 0.0
2016-Jul-30 16:32N 46°12' W 123°48'0 0.0
2016-Jul-30 15:32N 46°12' W 123°48'0 0.0
2016-Jul-30 14:32N 46°12' W 123°48'0 0.0
2016-Jul-30 13:32N 46°12' W 123°48'0 0.0
2016-Jul-30 12:32N 46°12' W 123°48'0 0.0
2016-Jul-30 11:29N 46°12' W 123°48'0 0.0
2016-Jul-30 10:32N 46°12' W 123°48'0 0.0
2016-Jul-30 09:29N 46°12' W 123°48'0 0.0
2016-Jul-30 08:32N 46°12' W 123°48'0 0.0
2016-Jul-30 07:29N 46°12' W 123°48'0 0.0
2016-Jul-30 06:32N 46°12' W 123°48'0 0.0
2016-Jul-30 05:32N 46°12' W 123°48'0 0.0
2016-Jul-30 04:32N 46°12' W 123°48'0 0.0
2016-Jul-30 03:32N 46°12' W 123°48'0 0.0
2016-Jul-30 02:32N 46°12' W 123°48'0 0.0
2016-Jul-30 01:32N 46°12' W 123°48'0 0.0
2016-Jul-30 00:32N 46°12' W 123°48'0 0.0
2016-Jul-29 23:32N 46°12' W 123°48'0 0.0
2016-Jul-29 22:32N 46°12' W 123°48'0 0.0
2016-Jul-29 21:32N 46°12' W 123°48'0 0.0
2016-Jul-29 20:32N 46°12' W 123°48'0 0.0
2016-Jul-29 19:32N 46°12' W 123°48'0 0.0
2016-Jul-29 18:33N 46°12' W 123°48'2 2.3
2016-Jul-29 17:32N 46°11' W 123°51'0 0.0
2016-Jul-29 16:32N 46°11' W 123°51'0 0.0
2016-Jul-29 15:32N 46°11' W 123°51'0 0.0
2016-Jul-29 14:32N 46°11' W 123°51'0 0.0
2016-Jul-29 13:32N 46°11' W 123°51'0 0.0
2016-Jul-29 12:32N 46°11' W 123°51'0 0.0
2016-Jul-29 11:32N 46°11' W 123°51'0 0.0
2016-Jul-29 10:32N 46°11' W 123°51'0 0.0
2016-Jul-29 09:32N 46°11' W 123°51'0 0.0
2016-Jul-29 08:32N 46°11' W 123°51'0 0.0
2016-Jul-29 07:32N 46°11' W 123°51'0 0.0
2016-Jul-29 06:32N 46°11' W 123°51'0 0.0
2016-Jul-29 05:32N 46°11' W 123°51'0 0.0
2016-Jul-29 04:32N 46°11' W 123°51'0 0.0
2016-Jul-29 03:32N 46°11' W 123°51'0 0.0
2016-Jul-29 02:32N 46°11' W 123°51'0 0.0
2016-Jul-29 01:32N 46°11' W 123°51'0 0.0
2016-Jul-29 00:32N 46°11' W 123°51'5 5.5
2016-Jul-28 23:33N 46°14' W 123°58'6 6.0
2016-Jul-28 22:33N 46°15' W 124°07'5 5.0
2016-Jul-28 21:33N 46°14' W 124°14'3 3.1
2016-Jul-28 20:33N 46°12' W 124°18'2 1.9
2016-Jul-28 19:34N 46°11' W 124°18'2 2.4
2016-Jul-28 18:33N 46°08' W 124°17'2 2.4
2016-Jul-28 17:33N 46°06' W 124°17'2 1.6
2016-Jul-28 16:33N 46°04' W 124°18'2 2.2
2016-Jul-28 15:33N 46°07' W 124°18'2 2.3
2016-Jul-28 14:33N 46°09' W 124°18'2 2.4
2016-Jul-28 13:33N 46°11' W 124°18'2 2.0
2016-Jul-28 12:33N 46°13' W 124°19'1 0.9
2016-Jul-28 11:33N 46°14' W 124°19'1 1.3
2016-Jul-28 10:33N 46°14' W 124°21'1 1.2
2016-Jul-28 09:33N 46°14' W 124°20'1 1.3
2016-Jul-28 08:33N 46°16' W 124°20'1 1.4
2016-Jul-28 07:33N 46°17' W 124°20'1 1.5
2016-Jul-28 06:33N 46°16' W 124°19'3 3.3
2016-Jul-28 05:33N 46°13' W 124°18'2 2.5
2016-Jul-28 04:33N 46°10' W 124°17'2 2.5
2016-Jul-28 03:33N 46°08' W 124°17'2 2.4
2016-Jul-28 02:33N 46°05' W 124°18'1 1.4
2016-Jul-28 01:33N 46°04' W 124°19'1 1.3
2016-Jul-28 00:34N 46°06' W 124°20'1 1.3
2016-Jul-27 23:33N 46°07' W 124°20'3 2.5
2016-Jul-27 22:33N 46°09' W 124°20'3 2.7
2016-Jul-27 21:33N 46°12' W 124°20'3 3.2
2016-Jul-27 20:33N 46°15' W 124°19'4 4.2
2016-Jul-27 19:33N 46°19' W 124°21'2 2.5
2016-Jul-27 18:33N 46°21' W 124°23'2 2.4
2016-Jul-27 17:33N 46°23' W 124°25'2 2.5
2016-Jul-27 16:33N 46°26' W 124°26'1 0.8
2016-Jul-27 15:34N 46°25' W 124°25'2 2.4
2016-Jul-27 14:33N 46°23' W 124°23'2 2.5
2016-Jul-27 13:33N 46°21' W 124°22'2 2.5
2016-Jul-27 12:33N 46°19' W 124°20'0 0.2
2016-Jul-27 11:33N 46°19' W 124°20'3 2.6
2016-Jul-27 10:33N 46°16' W 124°21'1 1.2
2016-Jul-27 09:33N 46°15' W 124°20'1 1.2
2016-Jul-27 08:33N 46°16' W 124°20'0 0.3
2016-Jul-27 07:33N 46°16' W 124°20'5 4.9
2016-Jul-27 06:34N 46°11' W 124°19'1 1.5
2016-Jul-27 05:33N 46°10' W 124°20'2 2.3
2016-Jul-27 04:33N 46°08' W 124°20'2 2.2
2016-Jul-27 03:33N 46°05' W 124°20'1 1.1
2016-Jul-27 02:33N 46°06' W 124°18'0 0.1
2016-Jul-27 01:33N 46°06' W 124°18'3 2.5
2016-Jul-27 00:33N 46°08' W 124°18'3 2.5
2016-Jul-26 23:33N 46°11' W 124°18'2 2.4
2016-Jul-26 22:34N 46°13' W 124°19'4 4.2
2016-Jul-26 21:33N 46°17' W 124°20'3 2.7
2016-Jul-26 20:34N 46°20' W 124°22'2 2.4
2016-Jul-26 19:33N 46°22' W 124°24'2 2.3
2016-Jul-26 18:33N 46°24' W 124°25'2 2.0
2016-Jul-26 17:33N 46°26' W 124°25'1 1.1
2016-Jul-26 16:32N 46°27' W 124°25'2 2.4
2016-Jul-26 15:33N 46°30' W 124°25'2 2.4
2016-Jul-26 14:33N 46°32' W 124°25'2 2.4
2016-Jul-26 13:32N 46°34' W 124°25'2 2.1
2016-Jul-26 12:33N 46°36' W 124°25'0 0.3
2016-Jul-26 11:33N 46°36' W 124°25'2 2.2
2016-Jul-26 10:33N 46°34' W 124°25'2 2.2
2016-Jul-26 09:33N 46°32' W 124°25'2 2.3
2016-Jul-26 08:33N 46°30' W 124°25'2 2.3
2016-Jul-26 07:33N 46°27' W 124°26'2 2.4
2016-Jul-26 06:33N 46°25' W 124°25'2 2.3
2016-Jul-26 05:33N 46°23' W 124°24'2 2.3
2016-Jul-26 04:33N 46°21' W 124°23'2 2.4
2016-Jul-26 03:33N 46°19' W 124°21'5 5.0
2016-Jul-26 02:34N 46°16' W 124°15'7 7.1
2016-Jul-26 01:33N 46°15' W 124°05'6 6.2
2016-Jul-26 00:33N 46°13' W 123°57'4 3.9
2016-Jul-25 23:33N 46°11' W 123°51'0 0.0
2016-Jul-25 22:33N 46°11' W 123°51'1 0.9
2016-Jul-25 21:33N 46°12' W 123°50'2 1.5
2016-Jul-25 20:33N 46°12' W 123°48'0 0.0
2016-Jul-25 19:33N 46°12' W 123°48'0 0.0
2016-Jul-25 18:33N 46°12' W 123°48'0 0.0
2016-Jul-25 17:33N 46°12' W 123°48'0 0.0
2016-Jul-25 16:33N 46°12' W 123°48'0 0.0
2016-Jul-25 15:33N 46°12' W 123°48'0 0.0
2016-Jul-25 14:33N 46°12' W 123°48'0 0.0
2016-Jul-25 13:33N 46°12' W 123°48'0 0.0
2016-Jul-25 12:33N 46°12' W 123°48'0 0.0
2016-Jul-25 11:33N 46°12' W 123°48'0 0.0
2016-Jul-25 10:33N 46°12' W 123°48'0 0.0
2016-Jul-25 09:33N 46°12' W 123°48'0 0.0
2016-Jul-25 08:30N 46°12' W 123°48'0 0.0
2016-Jul-25 07:33N 46°12' W 123°48'0 0.0
2016-Jul-25 06:33N 46°12' W 123°48'0 0.0
2016-Jul-25 05:33N 46°12' W 123°48'0 0.0
2016-Jul-25 04:33N 46°12' W 123°48'0 0.0
2016-Jul-25 03:33N 46°12' W 123°48'0 0.0
2016-Jul-25 02:33N 46°12' W 123°48'0 0.0
2016-Jul-25 01:33N 46°12' W 123°48'0 0.0
2016-Jul-25 00:33N 46°12' W 123°48'0 0.0
2016-Jul-24 23:33N 46°12' W 123°48'0 0.0
2016-Jul-24 22:33N 46°12' W 123°48'0 0.0
2016-Jul-24 21:33N 46°12' W 123°48'0 0.0
2016-Jul-24 20:33N 46°12' W 123°48'0 0.0
2016-Jul-24 19:33N 46°12' W 123°48'0 0.0
2016-Jul-24 18:33N 46°12' W 123°48'0 0.0
2016-Jul-24 17:30N 46°12' W 123°48'0 0.0
2016-Jul-24 16:30N 46°12' W 123°48'0 0.0
2016-Jul-24 15:33N 46°12' W 123°48'0 0.0
2016-Jul-24 14:33N 46°12' W 123°48'0 0.0
2016-Jul-24 13:33N 46°12' W 123°48'0 0.0
2016-Jul-24 12:33N 46°12' W 123°48'0 0.0
2016-Jul-24 11:33N 46°12' W 123°48'0 0.0
2016-Jul-24 10:33N 46°12' W 123°48'0 0.0
2016-Jul-24 09:33N 46°12' W 123°48'0 0.0
2016-Jul-24 08:33N 46°12' W 123°48'0 0.0
2016-Jul-24 07:33N 46°12' W 123°48'0 0.0
2016-Jul-24 06:33N 46°12' W 123°48'0 0.0
2016-Jul-24 05:33N 46°12' W 123°48'0 0.0
2016-Jul-24 04:33N 46°12' W 123°48'0 0.0
2016-Jul-24 03:33N 46°12' W 123°48'0 0.0
2016-Jul-24 02:33N 46°12' W 123°48'0 0.0
2016-Jul-24 01:33N 46°12' W 123°48'0 0.0
2016-Jul-24 00:33N 46°12' W 123°48'0 0.0
2016-Jul-23 23:33N 46°12' W 123°48'0 0.0
2016-Jul-23 22:33N 46°12' W 123°48'0 0.0
2016-Jul-23 21:33N 46°12' W 123°48'0 0.0
2016-Jul-23 20:33N 46°12' W 123°48'0 0.0
2016-Jul-23 19:33N 46°12' W 123°48'0 0.0
2016-Jul-23 18:33N 46°12' W 123°48'0 0.0
2016-Jul-23 17:33N 46°12' W 123°48'0 0.0
2016-Jul-23 16:33N 46°12' W 123°48'0 0.0
2016-Jul-23 15:33N 46°12' W 123°48'0 0.0
2016-Jul-23 14:33N 46°12' W 123°48'0 0.0
2016-Jul-23 13:33N 46°12' W 123°48'0 0.0
2016-Jul-23 12:33N 46°12' W 123°48'0 0.0
2016-Jul-23 11:33N 46°12' W 123°48'0 0.0
2016-Jul-23 10:33N 46°12' W 123°48'0 0.0
2016-Jul-23 09:33N 46°12' W 123°48'0 0.0
2016-Jul-23 08:33N 46°12' W 123°48'0 0.0
2016-Jul-23 07:33N 46°12' W 123°48'0 0.0
2016-Jul-23 06:33N 46°12' W 123°48'0 0.0
2016-Jul-23 04:33N 46°12' W 123°48'0 0.0
2016-Jul-23 03:33N 46°12' W 123°48'0 0.0
2016-Jul-23 02:33N 46°12' W 123°48'0 0.0
2016-Jul-23 01:33N 46°12' W 123°48'0 0.0
2016-Jul-23 00:33N 46°12' W 123°48'0 0.0
2016-Jul-22 23:33N 46°12' W 123°48'0 0.0
2016-Jul-22 22:33N 46°12' W 123°48'0 0.0
2016-Jul-22 21:33N 46°12' W 123°48'0 0.0
2016-Jul-22 20:33N 46°12' W 123°48'0 0.0
2016-Jul-22 19:33N 46°12' W 123°48'0 0.0
2016-Jul-22 18:33N 46°12' W 123°48'0 0.0
2016-Jul-22 17:33N 46°12' W 123°48'2 2.2
2016-Jul-22 16:33N 46°12' W 123°51'0 0.3
2016-Jul-22 15:31N 46°11' W 123°51'0 0.0
2016-Jul-22 14:31N 46°11' W 123°51'0 0.0
2016-Jul-22 13:31N 46°11' W 123°51'0 0.0
2016-Jul-22 12:31N 46°11' W 123°51'0 0.0
2016-Jul-22 11:31N 46°11' W 123°51'0 0.0
2016-Jul-22 10:31N 46°11' W 123°51'0 0.0
2016-Jul-22 09:28N 46°11' W 123°51'0 0.0
2016-Jul-22 08:31N 46°11' W 123°51'0 0.0
2016-Jul-22 07:31N 46°11' W 123°51'12 6.3
2016-Jul-22 05:33N 46°15' W 124°09'6 6.4
2016-Jul-22 04:33N 46°17' W 124°17'3 3.0
2016-Jul-22 03:33N 46°19' W 124°20'3 2.5
2016-Jul-22 02:33N 46°21' W 124°23'2 2.4
2016-Jul-22 01:33N 46°24' W 124°24'1 0.7
2016-Jul-22 00:33N 46°24' W 124°24'2 2.3
2016-Jul-21 23:33N 46°22' W 124°24'2 2.4
2016-Jul-21 22:33N 46°20' W 124°22'2 2.4
2016-Jul-21 21:33N 46°18' W 124°19'6 6.2
2016-Jul-21 20:33N 46°12' W 124°19'6 5.6
2016-Jul-21 19:33N 46°06' W 124°19'2 2.4
2016-Jul-21 18:33N 46°09' W 124°19'3 2.8
2016-Jul-21 17:33N 46°12' W 124°20'3 3.0
2016-Jul-21 16:33N 46°15' W 124°20'3 3.4
2016-Jul-21 15:33N 46°11' W 124°19'3 2.5
2016-Jul-21 14:33N 46°09' W 124°19'3 2.6
2016-Jul-21 13:33N 46°06' W 124°18'3 2.7
2016-Jul-21 12:34N 46°03' W 124°18'0 0.2
2016-Jul-21 11:31N 46°03' W 124°18'1 0.8
2016-Jul-21 10:31N 46°04' W 124°18'1 1.0
2016-Jul-21 09:33N 46°05' W 124°18'2 2.1
2016-Jul-21 08:33N 46°07' W 124°18'2 2.5
2016-Jul-21 07:33N 46°10' W 124°18'3 2.6
2016-Jul-21 06:33N 46°12' W 124°18'2 2.5
2016-Jul-21 05:33N 46°15' W 124°19'2 1.5
2016-Jul-21 04:33N 46°16' W 124°19'4 3.7
2016-Jul-21 03:33N 46°20' W 124°21'2 1.9
2016-Jul-21 02:33N 46°21' W 124°22'2 2.5
2016-Jul-21 01:33N 46°24' W 124°23'  

Dump ship's entire track history